Time;durP1;ratioP1;P1;durP2;ratioP2;P2;SDS_P1;SDS_P2;PMS_P1;PMS_P2;Temp;Humidity;BMP_temperature;BMP_pressure;BME280_temperature;BME280_humidity;BME280_pressure;Samples;Min_cycle;Max_cycle;Signal;HPM_P1;HPM_P2
2021/12/03 00:00:41;;;;;;;20.57;15.27;;;5.20;99.90;;;;;;5440776;23;21122;31
2021/12/03 00:03:09;;;;;;;20.70;15.77;;;5.20;99.90;;;;;;4895965;29;20340;-68
2021/12/03 00:05:35;;;;;;;21.23;14.23;;;5.30;99.90;;;;;;4900114;29;20188;-68
2021/12/03 00:08:01;;;;;;;26.17;17.05;;;5.30;99.90;;;;;;4898664;29;20203;-68
2021/12/03 00:10:27;;;;;;;22.77;14.93;;;5.40;99.90;;;;;;4899079;29;20183;-68
2021/12/03 00:12:54;;;;;;;20.53;15.30;;;5.50;99.90;;;;;;4898163;29;20192;-69
2021/12/03 00:15:23;;;;;;;23.92;15.65;;;5.50;99.90;;;;;;4880929;29;20179;-68
2021/12/03 00:17:50;;;;;;;23.35;16.23;;;5.50;99.90;;;;;;4907997;29;20646;-70
2021/12/03 00:20:16;;;;;;;23.42;16.63;;;5.60;99.90;;;;;;4907020;29;20187;-68
2021/12/03 00:22:45;;;;;;;20.80;15.63;;;5.70;99.90;;;;;;4899105;29;20207;-68
2021/12/03 00:25:11;;;;;;;21.63;14.98;;;5.60;99.90;;;;;;4897849;29;20242;-68
2021/12/03 00:27:39;;;;;;;23.42;16.25;;;5.70;99.90;;;;;;4898637;29;20191;-68
2021/12/03 00:30:08;;;;;;;24.90;17.65;;;5.70;99.90;;;;;;4898176;29;20180;-69
2021/12/03 00:32:34;;;;;;;26.40;16.83;;;5.80;99.90;;;;;;4882060;29;20671;-68
2021/12/03 00:35:00;;;;;;;26.43;17.90;;;5.80;99.90;;;;;;4898185;29;20452;-69
2021/12/03 00:37:26;;;;;;;24.67;17.10;;;5.90;99.90;;;;;;4899015;29;20426;-68
2021/12/03 00:39:52;;;;;;;22.98;16.70;;;5.90;99.90;;;;;;4898367;29;20441;-70
2021/12/03 00:42:19;;;;;;;22.93;16.93;;;5.90;99.90;;;;;;4881852;29;20250;-68
2021/12/03 00:44:53;;;;;;;22.23;15.57;;;6.00;99.90;;;;;;4898655;29;20744;-68
2021/12/03 00:47:19;;;;;;;26.00;17.20;;;6.00;99.90;;;;;;4903438;29;20394;-68
2021/12/03 00:49:45;;;;;;;22.63;16.23;;;6.10;99.90;;;;;;4909039;29;21002;-68
2021/12/03 00:52:11;;;;;;;23.53;16.50;;;6.10;99.90;;;;;;4880845;29;20519;-68
2021/12/03 00:54:37;;;;;;;20.93;15.20;;;6.10;99.90;;;;;;4898698;29;20818;-68
2021/12/03 00:57:03;;;;;;;20.47;14.40;;;6.10;99.90;;;;;;4897512;29;20849;-67
2021/12/03 00:59:29;;;;;;;22.43;15.47;;;6.10;99.90;;;;;;4898101;29;20528;-68
2021/12/03 01:01:55;;;;;;;23.70;16.23;;;6.10;99.90;;;;;;4897331;29;20487;-70
2021/12/03 01:04:21;;;;;;;24.83;15.80;;;6.20;99.90;;;;;;4898404;29;20180;-68
2021/12/03 01:06:47;;;;;;;23.00;14.80;;;6.20;99.90;;;;;;4897960;29;20587;-68
2021/12/03 01:09:13;;;;;;;22.23;14.87;;;6.20;99.90;;;;;;4897526;29;20296;-68
2021/12/03 01:11:39;;;;;;;23.97;15.13;;;6.20;99.90;;;;;;4881454;29;20491;-68
2021/12/03 01:14:05;;;;;;;25.13;16.33;;;6.20;99.90;;;;;;4897430;29;20408;-68
2021/12/03 01:16:32;;;;;;;19.77;14.43;;;6.20;99.90;;;;;;4897628;29;20795;-68
2021/12/03 01:18:59;;;;;;;21.48;15.88;;;6.20;99.90;;;;;;4897650;29;20184;-68
2021/12/03 01:21:25;;;;;;;21.40;13.93;;;6.20;99.90;;;;;;4897851;29;20208;-68
2021/12/03 01:23:52;;;;;;;22.50;14.63;;;6.20;99.90;;;;;;4904464;29;20202;-68
2021/12/03 01:26:19;;;;;;;18.53;14.00;;;6.20;99.90;;;;;;4915658;29;20302;-68
2021/12/03 01:28:45;;;;;;;22.07;14.70;;;6.20;99.90;;;;;;4916466;29;21041;-67
2021/12/03 01:31:13;;;;;;;24.98;15.57;;;6.20;99.90;;;;;;4898915;29;20447;-68
2021/12/03 01:33:39;;;;;;;26.23;15.43;;;6.20;99.90;;;;;;4916727;29;20183;-67
2021/12/03 01:36:05;;;;;;;21.15;14.90;;;6.20;99.90;;;;;;4915909;29;20451;-68
2021/12/03 01:38:31;;;;;;;19.90;14.60;;;6.20;99.90;;;;;;4908572;29;20177;-68
2021/12/03 01:40:57;;;;;;;26.53;15.77;;;6.20;99.90;;;;;;4897178;29;20424;-70
2021/12/03 01:43:24;;;;;;;20.00;15.43;;;6.20;99.90;;;;;;4897661;29;20472;-68
2021/12/03 01:46:19;;;;;;;20.53;15.07;;;6.10;99.90;;;;;;4897583;29;20181;-68
2021/12/03 01:48:46;;;;;;;25.95;15.20;;;6.20;99.90;;;;;;4897484;29;20424;-68
2021/12/03 01:51:12;;;;;;;20.83;14.60;;;6.20;99.90;;;;;;4896921;29;20184;-68
2021/12/03 01:53:39;;;;;;;23.60;14.00;;;6.20;99.90;;;;;;4897311;29;20720;-68
2021/12/03 01:56:10;;;;;;;18.65;13.88;;;6.20;99.90;;;;;;4896813;29;20425;-67
2021/12/03 01:58:37;;;;;;;19.23;13.50;;;6.20;99.90;;;;;;4897248;29;20267;-68
2021/12/03 02:01:08;;;;;;;17.40;13.23;;;6.20;99.90;;;;;;4895940;29;20769;-68
2021/12/03 02:03:36;;;;;;;16.87;12.77;;;6.20;99.90;;;;;;4897696;29;20447;-68
2021/12/03 02:06:03;;;;;;;19.67;12.90;;;6.20;99.90;;;;;;4896630;29;20428;-68
2021/12/03 02:08:29;;;;;;;22.53;13.37;;;6.30;99.90;;;;;;4897428;29;20418;-68
2021/12/03 02:10:55;;;;;;;17.37;12.03;;;6.20;99.90;;;;;;4897357;29;20413;-68
2021/12/03 02:13:21;;;;;;;16.77;12.93;;;6.40;99.90;;;;;;4896800;29;20259;-68
2021/12/03 02:15:47;;;;;;;19.47;14.00;;;6.30;99.90;;;;;;4897050;29;20436;-68
2021/12/03 02:18:15;;;;;;;24.33;16.27;;;6.40;99.90;;;;;;4896103;29;20430;-68
2021/12/03 02:20:48;;;;;;;19.23;15.68;;;6.40;99.90;;;;;;4912125;29;20187;-68
2021/12/03 02:23:15;;;;;;;25.67;15.83;;;6.40;99.90;;;;;;4914290;29;20561;-68
2021/12/03 02:25:41;;;;;;;20.60;15.70;;;6.40;99.90;;;;;;4896754;29;20433;-68
2021/12/03 02:28:08;;;;;;;23.67;17.47;;;6.40;99.90;;;;;;4896410;29;20420;-68
2021/12/03 02:30:34;;;;;;;25.80;18.33;;;6.40;99.90;;;;;;4897223;29;20499;-68
2021/12/03 02:32:59;;;;;;;26.90;19.23;;;6.40;99.90;;;;;;4896733;29;20425;-69
2021/12/03 02:35:25;;;;;;;24.77;18.37;;;6.40;99.90;;;;;;4896333;29;20482;-68
2021/12/03 02:37:52;;;;;;;26.17;18.20;;;6.40;99.90;;;;;;4898158;29;20185;-68
2021/12/03 02:40:20;;;;;;;21.87;16.00;;;6.40;99.90;;;;;;4900505;29;20411;-68
2021/12/03 02:42:47;;;;;;;21.57;16.30;;;6.50;99.90;;;;;;4900813;29;20460;-68
2021/12/03 02:45:13;;;;;;;19.50;14.97;;;6.40;99.90;;;;;;4900073;29;20786;-68
2021/12/03 02:47:39;;;;;;;18.60;14.80;;;6.40;99.90;;;;;;4900645;29;20425;-68
2021/12/03 02:50:07;;;;;;;20.30;15.57;;;6.40;99.90;;;;;;4900049;29;20412;-68
2021/12/03 02:52:33;;;;;;;22.63;16.80;;;6.40;99.90;;;;;;4900633;29;20438;-68
2021/12/03 02:54:59;;;;;;;22.67;16.73;;;6.40;99.90;;;;;;4900155;29;20417;-70
2021/12/03 02:57:25;;;;;;;23.60;16.50;;;6.40;99.90;;;;;;4900077;29;20409;-68
2021/12/03 02:59:50;;;;;;;23.87;17.20;;;6.40;99.90;;;;;;4900674;29;20184;-68
2021/12/03 03:02:17;;;;;;;22.23;15.97;;;6.50;99.90;;;;;;4898984;29;20386;-68
2021/12/03 03:04:42;;;;;;;21.87;14.90;;;6.50;99.90;;;;;;4900744;29;20574;-68
2021/12/03 03:07:08;;;;;;;20.60;16.10;;;6.50;99.90;;;;;;4899804;29;20493;-68
2021/12/03 03:09:34;;;;;;;22.60;15.40;;;6.50;99.90;;;;;;4900296;29;20311;-68
2021/12/03 03:12:00;;;;;;;19.90;15.03;;;6.20;99.90;;;;;;4900180;29;20228;-70
2021/12/03 03:14:27;;;;;;;21.87;15.40;;;6.50;99.90;;;;;;4899594;29;20827;-68
2021/12/03 03:16:53;;;;;;;18.20;13.73;;;6.40;99.90;;;;;;4899981;29;20448;-67
2021/12/03 03:19:22;;;;;;;21.67;16.33;;;6.40;99.90;;;;;;4899563;29;20405;-68
2021/12/03 03:21:49;;;;;;;20.88;14.68;;;6.40;99.90;;;;;;4883386;29;20456;-68
2021/12/03 03:24:17;;;;;;;21.80;15.00;;;6.50;99.90;;;;;;4899461;29;20218;-68
2021/12/03 03:26:45;;;;;;;18.13;14.87;;;6.50;99.90;;;;;;4900263;29;20296;-68
2021/12/03 03:29:13;;;;;;;21.90;15.90;;;6.50;99.90;;;;;;4899406;29;20395;-68
2021/12/03 03:31:40;;;;;;;19.93;14.47;;;6.60;99.90;;;;;;4899908;29;20757;-68
2021/12/03 03:34:07;;;;;;;19.97;14.17;;;6.60;99.90;;;;;;4917988;29;20942;-68
2021/12/03 03:36:34;;;;;;;20.17;15.47;;;6.50;99.90;;;;;;4919143;29;20409;-68
2021/12/03 03:39:02;;;;;;;23.87;16.50;;;6.60;99.90;;;;;;4918822;29;20413;-70
2021/12/03 03:41:28;;;;;;;23.17;16.60;;;6.60;99.90;;;;;;4890565;29;20469;-68
2021/12/03 03:43:54;;;;;;;23.97;16.50;;;6.60;99.90;;;;;;4883247;29;20420;-68
2021/12/03 03:46:20;;;;;;;23.93;17.23;;;6.60;99.90;;;;;;4898939;29;20601;-68
2021/12/03 03:48:46;;;;;;;27.40;18.80;;;6.60;99.90;;;;;;4899072;29;20180;-68
2021/12/03 03:51:11;;;;;;;30.53;20.00;;;6.70;99.90;;;;;;4898937;29;20417;-68
2021/12/03 03:53:38;;;;;;;25.00;17.20;;;6.70;99.90;;;;;;4899626;29;20243;-68
2021/12/03 03:56:06;;;;;;;26.93;17.83;;;6.70;99.90;;;;;;4898897;29;20211;-70
2021/12/03 03:58:32;;;;;;;28.10;18.73;;;6.60;99.90;;;;;;4899425;29;20424;-68
2021/12/03 04:00:58;;;;;;;25.63;17.70;;;6.60;99.90;;;;;;4898349;29;22100;-68
2021/12/03 04:03:24;;;;;;;26.30;17.87;;;6.60;99.90;;;;;;4898372;29;20490;-68
2021/12/03 04:05:50;;;;;;;33.73;19.40;;;6.50;99.90;;;;;;4898943;29;20917;-68
2021/12/03 04:08:16;;;;;;;28.87;18.33;;;6.50;99.90;;;;;;4898132;29;20496;-68
2021/12/03 04:10:42;;;;;;;29.77;19.53;;;6.40;99.90;;;;;;4899324;29;20516;-68
2021/12/03 04:13:08;;;;;;;28.80;18.00;;;6.40;99.90;;;;;;4881817;29;20184;-68
2021/12/03 04:15:33;;;;;;;31.30;19.10;;;6.50;99.90;;;;;;4899089;29;20432;-68
2021/12/03 04:18:00;;;;;;;29.63;18.00;;;6.50;99.90;;;;;;4899119;29;20414;-68
2021/12/03 04:20:25;;;;;;;29.97;19.93;;;6.50;99.90;;;;;;4898246;29;20180;-67
2021/12/03 04:22:52;;;;;;;28.80;19.00;;;6.40;99.90;;;;;;4898925;29;20460;-68
2021/12/03 04:25:20;;;;;;;30.33;19.03;;;6.40;99.90;;;;;;4898433;29;20899;-68
2021/12/03 04:27:46;;;;;;;29.77;18.67;;;6.50;99.90;;;;;;4899217;29;20391;-69
2021/12/03 04:30:17;;;;;;;27.60;18.30;;;6.50;99.90;;;;;;4881654;29;20427;-68
2021/12/03 04:32:43;;;;;;;24.57;18.20;;;6.40;99.90;;;;;;4898398;29;20579;-68
2021/12/03 04:35:09;;;;;;;26.63;17.60;;;6.40;99.90;;;;;;4898120;29;20979;-69
2021/12/03 04:37:35;;;;;;;28.50;17.40;;;6.40;99.90;;;;;;4898698;29;20464;-66
2021/12/03 04:40:02;;;;;;;28.23;17.27;;;6.40;99.90;;;;;;4898976;29;20544;-66
2021/12/03 04:42:28;;;;;;;23.27;16.77;;;6.30;99.90;;;;;;4897897;29;20495;-66
2021/12/03 04:44:54;;;;;;;27.60;17.37;;;6.40;99.90;;;;;;4898451;29;20468;-66
2021/12/03 04:47:19;;;;;;;24.37;15.93;;;6.50;99.90;;;;;;4897854;29;20185;-67
2021/12/03 04:49:45;;;;;;;25.10;17.17;;;6.50;99.90;;;;;;4898714;29;20712;-66
2021/12/03 04:52:11;;;;;;;21.13;16.17;;;6.50;99.90;;;;;;4897910;29;20239;-67
2021/12/03 04:54:36;;;;;;;23.53;16.80;;;6.60;99.90;;;;;;4898700;29;20188;-67
2021/12/03 04:57:02;;;;;;;21.80;16.67;;;6.60;99.90;;;;;;4898672;29;20643;-66
2021/12/03 04:59:29;;;;;;;27.93;16.00;;;6.50;99.90;;;;;;4897844;29;20651;-66
2021/12/03 05:01:57;;;;;;;20.73;15.37;;;6.50;99.90;;;;;;4897344;29;20537;-66
2021/12/03 05:04:23;;;;;;;23.37;15.80;;;6.60;99.90;;;;;;4897691;29;20423;-67
2021/12/03 05:07:04;;;;;;;24.47;17.53;;;6.60;99.90;;;;;;4896244;29;20780;-67
2021/12/03 05:09:30;;;;;;;26.27;15.10;;;6.70;99.90;;;;;;4896466;29;20448;-66
2021/12/03 05:11:56;;;;;;;23.63;16.00;;;6.70;99.90;;;;;;4897147;29;20433;-67
2021/12/03 05:14:22;;;;;;;24.37;15.00;;;6.60;99.90;;;;;;4895995;29;20423;-66
2021/12/03 05:16:48;;;;;;;24.90;15.00;;;6.70;99.90;;;;;;4897217;29;20192;-67
2021/12/03 05:19:15;;;;;;;20.60;14.30;;;6.70;99.90;;;;;;4896365;29;20244;-67
2021/12/03 05:21:42;;;;;;;20.10;13.20;;;6.70;99.90;;;;;;4898120;29;20465;-66
2021/12/03 05:24:08;;;;;;;22.83;14.50;;;6.70;99.90;;;;;;4897852;29;20410;-67
2021/12/03 05:26:35;;;;;;;21.70;14.60;;;6.70;99.90;;;;;;4881507;29;20425;-66
2021/12/03 05:29:01;;;;;;;19.47;14.30;;;6.70;99.90;;;;;;4898147;29;20488;-66
2021/12/03 05:31:27;;;;;;;21.27;15.43;;;6.70;99.90;;;;;;4897679;29;20425;-66
2021/12/03 05:33:53;;;;;;;20.00;13.27;;;6.70;99.90;;;;;;4898324;29;20416;-67
2021/12/03 05:36:18;;;;;;;20.90;14.03;;;6.70;99.90;;;;;;4897749;29;20185;-66
2021/12/03 05:38:44;;;;;;;22.90;15.57;;;6.70;99.90;;;;;;4898335;29;20181;-67
2021/12/03 05:41:10;;;;;;;24.20;17.03;;;6.70;99.90;;;;;;4897615;29;20182;-67
2021/12/03 05:43:36;;;;;;;22.57;16.43;;;6.70;99.90;;;;;;4897912;29;20178;-66
2021/12/03 05:46:02;;;;;;;25.13;16.47;;;6.80;99.90;;;;;;4898461;29;20414;-67
2021/12/03 05:48:27;;;;;;;28.67;18.07;;;6.70;99.90;;;;;;4897486;29;20180;-67
2021/12/03 05:50:53;;;;;;;25.67;16.40;;;6.70;99.90;;;;;;4898282;29;20208;-67
2021/12/03 05:53:19;;;;;;;24.30;15.63;;;6.70;99.90;;;;;;4897457;29;20613;-67
2021/12/03 05:55:45;;;;;;;26.67;17.30;;;6.70;99.90;;;;;;4897673;29;20668;-66
2021/12/03 05:58:10;;;;;;;27.40;17.20;;;6.80;99.90;;;;;;4897343;29;20181;-67
2021/12/03 06:00:40;;;;;;;29.93;17.93;;;6.70;99.90;;;;;;4897189;29;20184;-67
2021/12/03 06:03:06;;;;;;;29.23;18.10;;;6.50;99.90;;;;;;4895872;29;20236;-66
2021/12/03 06:05:33;;;;;;;28.60;18.00;;;6.60;99.90;;;;;;4895423;29;20440;-67
2021/12/03 06:07:59;;;;;;;27.60;17.30;;;6.70;99.90;;;;;;4896662;29;20512;-67
2021/12/03 06:10:26;;;;;;;23.33;16.13;;;6.50;99.90;;;;;;4897177;29;20815;-66
2021/12/03 06:12:53;;;;;;;26.77;15.87;;;6.50;99.90;;;;;;4897691;29;20954;-66
2021/12/03 06:15:19;;;;;;;25.00;16.20;;;6.50;99.90;;;;;;4897129;29;20416;-66
2021/12/03 06:17:45;;;;;;;26.83;17.10;;;6.50;99.90;;;;;;4897671;29;20412;-66
2021/12/03 06:20:11;;;;;;;22.13;15.00;;;6.50;99.90;;;;;;4896784;29;20937;-67
2021/12/03 06:22:38;;;;;;;26.60;17.07;;;6.40;99.90;;;;;;4897554;29;20224;-66
2021/12/03 06:25:05;;;;;;;18.90;13.70;;;6.40;99.90;;;;;;4897063;29;20484;-66
2021/12/03 06:27:31;;;;;;;24.50;13.20;;;6.40;99.90;;;;;;4896472;29;20479;-66
2021/12/03 06:29:58;;;;;;;21.63;13.47;;;6.40;99.90;;;;;;4896882;29;20417;-67
2021/12/03 06:32:24;;;;;;;21.07;14.10;;;6.40;99.90;;;;;;4896404;29;20496;-67
2021/12/03 06:34:51;;;;;;;18.13;13.97;;;6.50;99.90;;;;;;4897200;29;20477;-66
2021/12/03 06:37:17;;;;;;;22.00;15.20;;;6.60;99.90;;;;;;4879897;29;20420;-67
2021/12/03 06:39:42;;;;;;;22.17;14.30;;;6.50;99.90;;;;;;4896657;29;20421;-66
2021/12/03 06:42:08;;;;;;;18.60;14.80;;;6.50;99.90;;;;;;4895910;29;20680;-66
2021/12/03 06:44:34;;;;;;;24.80;16.40;;;6.50;99.90;;;;;;4896067;29;20195;-67
2021/12/03 06:47:02;;;;;;;20.73;15.70;;;6.60;99.90;;;;;;4897020;29;20409;-67
2021/12/03 06:49:29;;;;;;;16.40;12.23;;;6.50;99.90;;;;;;4895865;29;20721;-67
2021/12/03 06:52:01;;;;;;;19.60;14.40;;;6.50;99.90;;;;;;4895628;29;20480;-67
2021/12/03 06:54:30;;;;;;;19.20;13.80;;;6.50;99.90;;;;;;4892119;29;20836;-67
2021/12/03 06:56:56;;;;;;;20.73;13.60;;;6.50;99.90;;;;;;4895303;29;20929;-66
2021/12/03 06:59:24;;;;;;;18.97;13.17;;;6.60;99.90;;;;;;4895003;29;20417;-67
2021/12/03 07:01:51;;;;;;;18.17;13.13;;;6.60;99.90;;;;;;4895187;29;20239;-67
2021/12/03 07:04:17;;;;;;;17.63;12.87;;;6.60;99.90;;;;;;4894754;29;20822;-66
2021/12/03 07:06:43;;;;;;;21.80;12.80;;;6.70;99.90;;;;;;4895645;29;20428;-66
2021/12/03 07:09:10;;;;;;;20.23;14.47;;;6.70;99.90;;;;;;4895612;29;20501;-66
2021/12/03 07:11:36;;;;;;;18.87;12.47;;;6.80;99.90;;;;;;4895544;29;20447;-67
2021/12/03 07:14:08;;;;;;;22.00;13.80;;;6.70;99.90;;;;;;4896605;29;20438;-67
2021/12/03 07:16:34;;;;;;;20.40;12.90;;;6.70;99.90;;;;;;4895763;29;20197;-66
2021/12/03 07:19:00;;;;;;;15.43;13.37;;;6.70;99.90;;;;;;4895903;29;20441;-66
2021/12/03 07:21:26;;;;;;;21.20;12.27;;;6.70;99.90;;;;;;4896019;29;20409;-66
2021/12/03 07:23:53;;;;;;;19.80;13.97;;;6.80;99.90;;;;;;4898009;29;20377;-67
2021/12/03 07:26:21;;;;;;;15.60;13.10;;;6.70;99.90;;;;;;4899977;29;20852;-69
2021/12/03 07:28:47;;;;;;;23.30;15.43;;;6.70;99.90;;;;;;4900638;29;20911;-69
2021/12/03 07:31:14;;;;;;;20.77;14.43;;;6.80;99.90;;;;;;4899877;29;20520;-69
2021/12/03 07:33:40;;;;;;;22.23;13.87;;;6.80;99.90;;;;;;4900358;29;20476;-69
2021/12/03 07:36:07;;;;;;;20.07;14.33;;;6.90;99.90;;;;;;4900248;29;20440;-69
2021/12/03 07:38:34;;;;;;;23.03;15.07;;;6.90;99.90;;;;;;4899268;29;20775;-69
2021/12/03 07:41:01;;;;;;;20.80;15.03;;;6.90;99.90;;;;;;4900194;29;20740;-69
2021/12/03 07:43:26;;;;;;;25.67;16.17;;;7.00;99.90;;;;;;4899634;29;20507;-69
2021/12/03 07:45:52;;;;;;;21.97;14.83;;;6.80;99.90;;;;;;4900471;29;20766;-68
2021/12/03 07:48:21;;;;;;;21.90;14.17;;;7.00;99.90;;;;;;4899635;29;20178;-69
2021/12/03 07:50:48;;;;;;;17.60;14.90;;;7.00;99.90;;;;;;4899826;29;20563;-68
2021/12/03 07:53:17;;;;;;;20.90;15.10;;;7.00;99.90;;;;;;4899125;29;20435;-68
2021/12/03 07:55:43;;;;;;;24.47;15.00;;;7.00;99.90;;;;;;4900133;29;20854;-68
2021/12/03 07:58:09;;;;;;;21.60;14.60;;;7.00;99.90;;;;;;4900003;29;20502;-69
2021/12/03 08:00:36;;;;;;;21.77;15.27;;;7.00;99.90;;;;;;4899413;29;20450;-68
2021/12/03 08:03:02;;;;;;;20.50;14.73;;;7.00;99.90;;;;;;4899674;29;20992;-69
2021/12/03 08:05:27;;;;;;;22.57;14.70;;;7.00;99.90;;;;;;4899418;29;20440;-69
2021/12/03 08:07:53;;;;;;;24.93;14.77;;;7.00;99.90;;;;;;4899626;29;20409;-69
2021/12/03 08:10:19;;;;;;;24.20;14.60;;;6.80;99.90;;;;;;4899015;29;20391;-69
2021/12/03 08:12:46;;;;;;;21.10;15.77;;;6.80;99.90;;;;;;4899892;29;20759;-69
2021/12/03 08:15:15;;;;;;;21.77;15.50;;;6.70;99.90;;;;;;4899820;29;20184;-69
2021/12/03 08:17:41;;;;;;;24.20;15.67;;;6.80;99.90;;;;;;4899470;29;20425;-68
2021/12/03 08:20:09;;;;;;;21.33;14.23;;;6.80;99.90;;;;;;4899638;29;20411;-69
2021/12/03 08:22:35;;;;;;;22.60;14.43;;;6.70;99.90;;;;;;4899046;29;20723;-69
2021/12/03 08:25:02;;;;;;;23.90;15.10;;;6.70;99.90;;;;;;4899310;29;21024;-69
2021/12/03 08:27:28;;;;;;;20.23;13.30;;;6.60;99.90;;;;;;4899021;29;20415;-69
2021/12/03 08:29:54;;;;;;;18.33;13.37;;;6.60;99.90;;;;;;4899519;29;20514;-68
2021/12/03 08:32:20;;;;;;;16.27;12.20;;;6.70;99.90;;;;;;4898405;29;20445;-69
2021/12/03 08:34:46;;;;;;;24.23;13.57;;;6.70;99.90;;;;;;4898777;29;20409;-69
2021/12/03 08:37:12;;;;;;;17.63;13.50;;;6.60;99.90;;;;;;4880705;29;20404;-69
2021/12/03 08:39:38;;;;;;;17.87;11.60;;;6.70;99.90;;;;;;4898155;29;20212;-69
2021/12/03 08:42:06;;;;;;;14.33;10.87;;;6.70;99.90;;;;;;4898854;29;20465;-68
2021/12/03 08:44:32;;;;;;;19.20;11.77;;;6.80;99.90;;;;;;4898004;29;20440;-68
2021/12/03 08:47:03;;;;;;;15.80;11.00;;;6.80;99.90;;;;;;4898830;29;20413;-68
2021/12/03 08:49:38;;;;;;;18.53;11.13;;;6.80;99.90;;;;;;4898315;29;20749;-69
2021/12/03 08:54:52;;;;;;;17.47;11.60;;;6.90;99.90;;;;;;4897775;29;20424;-68
2021/12/03 08:57:30;;;;;;;15.10;10.50;;;6.90;99.90;;;;;;4898487;29;20440;-68
2021/12/03 09:00:00;;;;;;;15.97;10.33;;;7.00;99.90;;;;;;4898601;29;20404;-68
2021/12/03 09:02:26;;;;;;;17.53;9.20;;;7.00;99.90;;;;;;4897249;29;20486;-68
2021/12/03 09:04:52;;;;;;;13.10;10.37;;;7.00;99.90;;;;;;4898726;29;20540;-68
2021/12/03 09:07:18;;;;;;;10.93;9.20;;;7.00;99.90;;;;;;4898291;29;20587;-68
2021/12/03 09:09:44;;;;;;;14.13;9.07;;;7.00;99.90;;;;;;4897831;29;20228;-68
2021/12/03 09:12:11;;;;;;;9.50;7.80;;;6.90;99.80;;;;;;4898064;29;20432;-68
2021/12/03 09:14:43;;;;;;;10.47;8.10;;;6.90;99.70;;;;;;4897241;29;20856;-68
2021/12/03 09:19:48;;;;;;;13.30;9.50;;;6.80;99.40;;;;;;4897133;29;20425;-68
2021/12/03 09:22:25;;;;;;;9.33;7.90;;;6.90;99.80;;;;;;4897891;29;20456;-68
2021/12/03 09:24:52;;;;;;;13.70;7.70;;;6.80;99.90;;;;;;4898112;29;20437;-68
2021/12/03 09:27:20;;;;;;;11.67;8.20;;;6.80;99.90;;;;;;4898086;29;20425;-68
2021/12/03 09:29:46;;;;;;;9.63;8.63;;;6.80;99.90;;;;;;4897652;29;20802;-68
2021/12/03 09:32:20;;;;;;;10.73;7.80;;;6.80;99.90;;;;;;4897772;29;20437;-68
2021/12/03 09:34:46;;;;;;;9.27;7.57;;;6.70;99.80;;;;;;4897639;29;20493;-68
2021/12/03 09:37:12;;;;;;;12.50;8.30;;;6.70;99.90;;;;;;4897347;29;20485;-68
2021/12/03 09:39:41;;;;;;;8.90;6.70;;;6.80;99.90;;;;;;4895887;29;20426;-67
2021/12/03 09:42:07;;;;;;;9.70;7.67;;;6.80;99.90;;;;;;4896295;29;20463;-68
2021/12/03 09:44:37;;;;;;;11.43;6.67;;;6.70;99.40;;;;;;4896340;29;20433;-68
2021/12/03 09:47:04;;;;;;;7.80;5.73;;;6.70;99.60;;;;;;4896794;29;20507;-68
2021/12/03 09:49:38;;;;;;;11.93;6.50;;;6.80;99.50;;;;;;4896085;29;20519;-68
2021/12/03 09:54:59;;;;;;;12.60;6.50;;;6.90;99.00;;;;;;4896574;29;20397;-68
2021/12/03 10:02:36;;;;;;;12.27;6.03;;;6.80;98.80;;;;;;4896465;29;20485;-69
2021/12/03 10:13:07;;;;;;;9.33;5.80;;;7.00;98.30;;;;;;4897832;29;20402;-68
2021/12/03 10:15:36;;;;;;;10.90;5.10;;;7.00;98.40;;;;;;4896599;29;20421;-68
2021/12/03 10:21:09;;;;;;;10.03;4.60;;;7.00;98.10;;;;;;4888703;29;20536;-68
2021/12/03 10:31:57;;;;;;;7.73;4.60;;;7.20;97.60;;;;;;4896649;29;20480;-68
2021/12/03 10:46:19;;;;;;;7.13;3.80;;;7.10;97.00;;;;;;4878833;29;20410;-68
2021/12/03 10:48:23;;;;;;;10.37;4.03;;;7.20;97.10;;;;;;4876133;29;20440;-69
2021/12/03 10:51:14;;;;;;;5.97;3.87;;;7.20;96.80;;;;;;4880658;29;20419;-68
2021/12/03 10:53:44;;;;;;;6.20;3.57;;;7.20;96.90;;;;;;4896038;29;20434;-68
2021/12/03 10:56:39;;;;;;;9.27;4.83;;;7.30;96.90;;;;;;4897266;29;20888;-68
2021/12/03 11:05:07;;;;;;;6.47;4.23;;;7.20;96.90;;;;;;4900488;29;20427;-68
2021/12/03 11:45:52;;;;;;;6.03;4.20;;;6.90;97.10;;;;;;4900217;29;20433;-68
2021/12/03 12:56:25;;;;;;;5.67;4.50;;;7.10;95.70;;;;;;4898668;29;20409;-69
2021/12/03 13:12:00;;;;;;;6.43;4.70;;;7.10;95.50;;;;;;4898524;29;20505;-69
2021/12/03 13:20:19;;;;;;;5.00;4.60;;;7.00;95.30;;;;;;4897979;29;20407;-68
2021/12/03 13:32:03;;;;;;;7.20;5.50;;;7.00;95.90;;;;;;4859079;29;20896;-69
2021/12/03 13:57:10;;;;;;;4.90;4.00;;;7.00;95.80;;;;;;4898368;29;20438;-68
2021/12/03 14:05:11;;;;;;;5.20;4.70;;;7.10;95.60;;;;;;4897323;29;20438;-68
2021/12/03 14:19:36;;;;;;;4.60;4.20;;;7.20;95.70;;;;;;4894736;29;20749;-68
2021/12/03 14:46:11;;;;;;;71.97;41.63;;;7.30;95.50;;;;;;4896051;29;20422;-68
2021/12/03 14:57:09;;;;;;;5.10;4.70;;;7.30;95.10;;;;;;4879500;29;20579;-68
2021/12/03 14:59:39;;;;;;;4.33;4.03;;;7.20;95.40;;;;;;4878995;29;20780;-68
2021/12/03 15:02:18;;;;;;;4.20;3.90;;;7.30;95.30;;;;;;4896341;29;20490;-68
2021/12/03 15:07:35;;;;;;;4.23;3.83;;;7.20;95.20;;;;;;4897095;29;20426;-69
2021/12/03 15:10:05;;;;;;;4.20;3.80;;;7.30;95.50;;;;;;4877345;29;20436;-70
2021/12/03 15:36:35;;;;;;;4.60;3.90;;;7.30;95.50;;;;;;4877790;29;20426;-70
2021/12/03 16:10:32;;;;;;;5.50;4.57;;;6.60;98.80;;;;;;4880976;29;20900;-70
2021/12/03 16:16:16;;;;;;;5.03;4.70;;;6.80;99.00;;;;;;4881238;29;20423;-70
2021/12/03 16:45:20;;;;;;;6.53;4.67;;;6.60;99.90;;;;;;4898074;29;20421;-68
2021/12/03 16:48:06;;;;;;;4.60;4.30;;;6.70;99.90;;;;;;4898275;29;20419;-68
2021/12/03 16:53:21;;;;;;;4.80;4.50;;;6.60;99.90;;;;;;4899222;29;20497;-68
2021/12/03 16:55:58;;;;;;;5.00;4.50;;;6.70;99.90;;;;;;4898161;29;20473;-68
2021/12/03 16:58:24;;;;;;;5.13;4.70;;;6.70;99.90;;;;;;4898915;29;20400;-68
2021/12/03 17:00:57;;;;;;;4.87;4.47;;;6.30;99.90;;;;;;4898446;29;20451;-68
2021/12/03 17:03:36;;;;;;;5.10;4.70;;;6.60;99.90;;;;;;4898792;29;20587;-68
2021/12/03 17:09:10;;;;;;;5.33;4.90;;;6.70;99.90;;;;;;4898148;29;20447;-68
2021/12/03 17:47:58;;;;;;;6.93;5.50;;;6.50;99.90;;;;;;4897222;29;20890;-69
2021/12/03 17:53:08;;;;;;;5.50;5.10;;;6.70;99.90;;;;;;4882676;29;20411;-69
2021/12/03 17:58:07;;;;;;;6.47;5.83;;;6.70;99.90;;;;;;4897401;29;20509;-69
2021/12/03 18:03:37;;;;;;;5.60;5.07;;;6.60;99.90;;;;;;4862544;29;20494;-69
2021/12/03 18:16:47;;;;;;;6.30;5.70;;;6.50;99.90;;;;;;4897855;29;20401;-69
2021/12/03 18:56:36;;;;;;;6.87;6.20;;;6.70;99.90;;;;;;4895537;29;20951;-68
2021/12/03 18:59:05;;;;;;;6.90;6.30;;;6.60;99.90;;;;;;4896870;29;20479;-67
2021/12/03 19:01:33;;;;;;;5.93;5.50;;;6.80;99.90;;;;;;4897164;29;20484;-67
2021/12/03 19:04:20;;;;;;;7.50;6.90;;;6.80;99.90;;;;;;4895955;29;21032;-67
2021/12/03 19:07:22;;;;;;;6.37;5.90;;;6.80;99.90;;;;;;4897022;29;20779;-67
2021/12/03 19:09:42;;;;;;;7.80;7.03;;;6.70;99.90;;;;;;4894849;29;20465;-67
2021/12/03 19:14:37;;;;;;;7.90;7.20;;;6.80;99.90;;;;;;4896709;29;20520;-67
2021/12/03 19:17:04;;;;;;;6.60;5.87;;;6.80;99.90;;;;;;4895222;29;20261;-67
2021/12/03 19:19:30;;;;;;;7.30;6.33;;;6.90;99.90;;;;;;4897351;29;20445;-67
2021/12/03 19:21:59;;;;;;;6.60;5.30;;;6.90;99.90;;;;;;4900187;29;20802;-67
2021/12/03 19:24:27;;;;;;;6.87;6.27;;;6.80;99.90;;;;;;4900502;29;20430;-67
2021/12/03 19:26:53;;;;;;;6.53;6.00;;;6.80;99.90;;;;;;4899890;29;20433;-67
2021/12/03 19:29:20;;;;;;;6.80;5.63;;;7.00;99.90;;;;;;4899819;29;20424;-67
2021/12/03 19:31:50;;;;;;;6.30;5.90;;;7.00;99.90;;;;;;4899759;29;20197;-68
2021/12/03 19:34:15;;;;;;;6.57;5.97;;;7.00;99.90;;;;;;4899153;29;20418;-67
2021/12/03 19:36:44;;;;;;;6.67;6.07;;;7.10;99.90;;;;;;4899736;29;20482;-66
2021/12/03 19:39:13;;;;;;;5.50;5.13;;;7.10;99.90;;;;;;4897819;29;20208;-67
2021/12/03 19:45:01;;;;;;;5.53;5.03;;;7.00;99.90;;;;;;4900159;29;20437;-67
2021/12/03 19:47:19;;;;;;;5.73;5.23;;;7.00;99.90;;;;;;4898423;29;20840;-67
2021/12/03 19:50:05;;;;;;;5.37;4.87;;;6.90;99.90;;;;;;4899161;29;20434;-67
2021/12/03 19:52:40;;;;;;;4.80;4.40;;;6.90;99.90;;;;;;4898946;29;20431;-67
2021/12/03 19:55:06;;;;;;;5.20;4.80;;;6.70;99.90;;;;;;4898922;29;20412;-65
2021/12/03 19:57:38;;;;;;;5.60;5.20;;;6.60;99.90;;;;;;4899165;29;20459;-66
2021/12/03 20:00:06;;;;;;;5.13;4.73;;;6.70;99.90;;;;;;4899038;29;20490;-67
2021/12/03 20:02:31;;;;;;;5.97;5.37;;;6.70;99.90;;;;;;4899458;29;20483;-67
2021/12/03 20:04:58;;;;;;;6.97;5.70;;;6.80;99.90;;;;;;4899083;29;20464;-67
2021/12/03 20:07:24;;;;;;;6.70;6.10;;;6.90;99.90;;;;;;4898813;29;20437;-67
2021/12/03 20:09:59;;;;;;;5.30;4.90;;;7.00;99.90;;;;;;4898232;29;20571;-68
2021/12/03 20:12:25;;;;;;;5.13;4.80;;;6.70;99.90;;;;;;4898868;29;20205;-68
2021/12/03 20:14:52;;;;;;;5.63;5.10;;;6.90;99.90;;;;;;4883277;29;20431;-68